Time;durP1;ratioP1;P1;durP2;ratioP2;P2;SDS_P1;SDS_P2;PMS_P1;PMS_P2;Temp;Humidity;BMP_temperature;BMP_pressure;BME280_temperature;BME280_humidity;BME280_pressure;Samples;Min_cycle;Max_cycle;Signal;HPM_P1;HPM_P2
2022/07/05 00:01:51;;;;;;;6.78;3.45;;;;;;;;;;21260564;27;20495;-55
2022/07/05 00:11:53;;;;;;;8.65;3.75;;;;;;;;;;21259650;27;20054;-54
2022/07/05 00:21:55;;;;;;;6.45;3.42;;;;;;;;;;21259408;27;20402;-55
2022/07/05 00:31:57;;;;;;;6.15;3.42;;;;;;;;;;21258447;27;20074;-55
2022/07/05 00:42:00;;;;;;;4.75;3.33;;;;;;;;;;21258407;27;20058;-55
2022/07/05 00:52:03;;;;;;;9.10;3.33;;;;;;;;;;21256184;27;20051;-54
2022/07/05 01:02:05;;;;;;;6.53;3.78;;;;;;;;;;21236194;27;20047;-54
2022/07/05 01:12:08;;;;;;;6.30;3.17;;;;;;;;;;21254602;27;20204;-56
2022/07/05 01:22:18;;;;;;;4.22;2.90;;;;;;;;;;21254477;27;20140;-55
2022/07/05 01:32:21;;;;;;;8.50;3.60;;;;;;;;;;21253872;27;20072;-56
2022/07/05 01:42:27;;;;;;;9.07;3.67;;;;;;;;;;21252963;27;20399;-57
2022/07/05 01:52:32;;;;;;;6.18;3.45;;;;;;;;;;21253358;27;20108;-57
2022/07/05 02:02:39;;;;;;;5.85;3.33;;;;;;;;;;21250728;27;20047;-54
2022/07/05 02:12:41;;;;;;;7.00;3.33;;;;;;;;;;21249220;27;20134;-56
2022/07/05 02:22:50;;;;;;;8.00;3.53;;;;;;;;;;21249650;27;20118;-54
2022/07/05 02:33:00;;;;;;;5.40;3.03;;;;;;;;;;21248540;27;20062;-55
2022/07/05 02:43:22;;;;;;;7.00;3.20;;;;;;;;;;21248807;27;20055;-59
2022/07/05 02:53:34;;;;;;;6.20;3.00;;;;;;;;;;21247546;27;20455;-55
2022/07/05 03:03:38;;;;;;;7.57;2.92;;;;;;;;;;21246209;28;20120;-54
2022/07/05 03:13:46;;;;;;;9.52;3.50;;;;;;;;;;21246263;28;20051;-55
2022/07/05 03:23:51;;;;;;;11.13;3.95;;;;;;;;;;21250462;27;20051;-54
2022/07/05 03:33:56;;;;;;;6.80;3.05;;;;;;;;;;21262187;27;20066;-56
2022/07/05 03:43:58;;;;;;;7.07;3.30;;;;;;;;;;21261404;27;20051;-54
2022/07/05 03:54:02;;;;;;;5.15;3.28;;;;;;;;;;21261112;27;20410;-58
2022/07/05 04:04:04;;;;;;;7.65;2.85;;;;;;;;;;21260081;27;20384;-57
2022/07/05 04:14:08;;;;;;;;;;;;;;;;;;21259632;27;20070;-55
2022/07/05 04:24:11;;;;;;;3.92;2.75;;;;;;;;;;21259240;27;20006;-57
2022/07/05 04:34:13;;;;;;;7.13;2.92;;;;;;;;;;21257300;27;20051;-55
2022/07/05 04:44:15;;;;;;;5.30;2.70;;;23.50;33.30;;;;;;21257012;27;20118;-56
2022/07/05 04:54:20;;;;;;;6.68;2.80;;;23.20;34.30;;;;;;21255668;27;20055;-56
2022/07/05 05:04:22;;;;;;;6.63;2.87;;;23.20;34.60;;;;;;21255661;27;20099;-56
2022/07/05 05:14:24;;;;;;;15.07;4.70;;;23.20;35.10;;;;;;21255312;27;20043;-54
2022/07/05 05:24:26;;;;;;;6.50;3.07;;;23.20;35.50;;;;;;21253574;27;20048;-57
2022/07/05 05:34:28;;;;;;;8.02;3.22;;;23.20;37.00;;;;;;21252707;27;20062;-53
2022/07/05 05:44:30;;;;;;;7.37;3.50;;;23.20;37.70;;;;;;21251748;27;20104;-54
2022/07/05 05:54:32;;;;;;;9.37;3.40;;;23.40;37.60;;;;;;21232758;27;20050;-55
2022/07/05 06:04:34;;;;;;;13.13;3.50;;;23.60;37.80;;;;;;21250974;27;20049;-54
2022/07/05 06:14:35;;;;;;;6.37;3.13;;;23.70;37.40;;;;;;21249344;27;20058;-55
2022/07/05 06:24:37;;;;;;;9.33;3.43;;;23.90;37.60;;;;;;21248752;27;20055;-54
2022/07/05 06:34:39;;;;;;;9.13;2.73;;;24.20;39.70;;;;;;21248383;27;20051;-57
2022/07/05 06:44:41;;;;;;;6.00;2.95;;;24.50;39.20;;;;;;21248916;27;20054;-56
2022/07/05 06:54:43;;;;;;;;;;;24.70;39.10;;;;;;21248343;27;20059;-55
2022/07/05 07:04:45;;;;;;;8.80;3.35;;;25.10;38.60;;;;;;21261701;27;20283;-55
2022/07/05 07:14:47;;;;;;;5.50;3.10;;;25.90;37.20;;;;;;21264097;27;20057;-57
2022/07/05 07:24:49;;;;;;;6.95;3.35;;;26.60;35.00;;;;;;21262985;27;20047;-55
2022/07/05 07:34:51;;;;;;;9.02;4.00;;;27.10;34.00;;;;;;21263461;27;20498;-55
2022/07/05 07:44:54;;;;;;;8.85;4.18;;;27.70;32.50;;;;;;21261837;27;20054;-57
2022/07/05 07:54:57;;;;;;;9.18;4.57;;;28.10;32.00;;;;;;21260825;27;20047;-55
2022/07/05 08:04:58;;;;;;;9.00;4.38;;;28.90;30.90;;;;;;21260487;27;20055;-56
2022/07/05 08:15:00;;;;;;;13.48;4.13;;;28.80;30.80;;;;;;21259125;27;20062;-56
2022/07/05 08:25:02;;;;;;;14.32;4.28;;;28.90;31.00;;;;;;21259945;27;20525;-55
2022/07/05 08:35:04;;;;;;;12.10;4.72;;;29.20;30.10;;;;;;21257789;27;20077;-58
2022/07/05 08:45:08;;;;;;;11.43;3.92;;;29.60;29.20;;;;;;21256939;27;20138;-58
2022/07/05 08:55:11;;;;;;;8.07;3.28;;;29.90;28.60;;;;;;21256502;27;20587;-55
2022/07/05 09:05:15;;;;;;;11.40;4.03;;;30.10;30.30;;;;;;21227300;27;20058;-55
2022/07/05 09:15:17;;;;;;;12.10;4.40;;;30.40;29.10;;;;;;21172586;27;20443;-59
2022/07/05 09:25:29;;;;;;;9.30;4.68;;;30.60;27.40;;;;;;21166225;28;20541;-60
2022/07/05 09:35:31;;;;;;;11.90;4.25;;;30.90;27.20;;;;;;21168375;28;20055;-60
2022/07/05 09:45:33;;;;;;;10.65;4.13;;;;;;;;;;21167402;28;20480;-56
2022/07/05 09:55:35;;;;;;;18.20;5.07;;;31.30;27.10;;;;;;21167876;28;20388;-54
2022/07/05 10:05:36;;;;;;;9.32;4.22;;;31.60;25.80;;;;;;21165971;28;20083;-53
2022/07/05 10:15:38;;;;;;;7.65;3.53;;;31.70;25.00;;;;;;21164800;28;20393;-53
2022/07/05 10:25:42;;;;;;;10.60;3.28;;;32.10;24.20;;;;;;21163170;28;20479;-50
2022/07/05 10:35:43;;;;;;;4.50;3.22;;;32.50;22.50;;;;;;21164382;28;20051;-53
2022/07/05 10:45:52;;;;;;;9.52;3.20;;;32.80;21.90;;;;;;21163349;28;20051;-53
2022/07/05 10:55:59;;;;;;;9.18;3.17;;;32.80;21.60;;;;;;21162211;28;20100;-51
2022/07/05 11:06:02;;;;;;;10.02;3.33;;;33.20;22.20;;;;;;21161403;28;20052;-55
2022/07/05 11:16:23;;;;;;;9.35;3.05;;;33.40;21.70;;;;;;21161192;28;20109;-56
2022/07/05 11:26:25;;;;;;;9.23;3.50;;;33.60;22.10;;;;;;21161661;28;20132;-52
2022/07/05 11:36:26;;;;;;;9.93;3.40;;;33.80;21.10;;;;;;21161107;28;20097;-53
2022/07/05 11:46:29;;;;;;;12.85;3.65;;;33.90;22.00;;;;;;21165442;28;20059;-54
2022/07/05 11:56:30;;;;;;;11.70;3.47;;;34.00;22.50;;;;;;21175326;28;20043;-56
2022/07/05 12:06:41;;;;;;;14.75;3.67;;;33.90;22.60;;;;;;21173711;28;20056;-56
2022/07/05 12:16:42;;;;;;;9.80;3.25;;;;;;;;;;21173371;28;20051;-55
2022/07/05 12:26:44;;;;;;;7.43;2.78;;;;;;;;;;21173113;28;20047;-56
2022/07/05 12:36:47;;;;;;;12.60;3.28;;;;;;;;;;21172678;28;20044;-56
2022/07/05 12:46:50;;;;;;;7.93;2.97;;;;;;;;;;21171504;28;20142;-56
2022/07/05 13:07:25;;;;;;;7.07;2.50;;;;;;;;;;21171553;28;20090;-57
2022/07/05 13:17:27;;;;;;;6.05;2.33;;;;;;;;;;21169951;28;20043;-55
2022/07/05 13:27:29;;;;;;;7.95;2.58;;;;;;;;;;21179454;27;20042;-57
2022/07/05 13:37:32;;;;;;;8.70;2.50;;;;;;;;;;21278725;27;20127;-60
2022/07/05 13:47:34;;;;;;;9.82;2.25;;;;;;;;;;21291449;27;20047;-59
2022/07/05 13:57:36;;;;;;;6.22;1.70;;;;;;;;;;21313775;27;20075;-59
2022/07/05 14:07:38;;;;;;;4.80;1.70;;;;;;;;;;21224559;27;20402;-54
2022/07/05 14:17:40;;;;;;;8.07;1.83;;;;;;;;;;21206854;27;20044;-56
2022/07/05 14:27:43;;;;;;;4.03;1.48;;;;;;;;;;21163824;28;20443;-64
2022/07/05 14:37:45;;;;;;;4.43;1.50;;;;;;;;;;21163525;28;20048;-60
2022/07/05 14:47:48;;;;;;;5.53;1.30;;;;;;;;;;21162714;28;20066;-58
2022/07/05 14:57:51;;;;;;;5.68;1.60;;;;;;;;;;21249332;27;20042;-59
2022/07/05 15:07:53;;;;;;;7.95;1.85;;;;;;;;;;21331362;27;20168;-58
2022/07/05 15:17:56;;;;;;;5.43;1.98;;;;;;;;;;21334296;27;20046;-57
2022/07/05 15:27:59;;;;;;;4.30;1.60;;;;;;;;;;21347702;27;20093;-64
2022/07/05 15:38:01;;;;;;;5.35;2.13;;;;;;;;;;21348493;27;20082;-65
2022/07/05 15:48:03;;;;;;;5.25;1.63;;;;;;;;;;21347799;27;20051;-65
2022/07/05 15:58:05;;;;;;;10.35;8.10;;;;;;;;;;21345411;27;20122;-60
2022/07/05 16:08:07;;;;;;;5.18;1.58;;;;;;;;;;21344648;27;20057;-62
2022/07/05 16:18:09;;;;;;;5.57;1.92;;;;;;;;;;21343873;27;20047;-64
2022/07/05 16:28:11;;;;;;;5.53;2.00;;;;;;;;;;21342305;27;20050;-58
2022/07/05 16:38:14;;;;;;;5.38;2.65;;;;;;;;;;21342823;27;20069;-61
2022/07/05 16:48:16;;;;;;;5.68;1.95;;;;;;;;;;21341537;27;20455;-56
2022/07/05 16:58:18;;;;;;;7.22;1.90;;;;;;;;;;21343579;27;20046;-58
2022/07/05 17:08:20;;;;;;;7.05;2.08;;;;;;;;;;21340386;27;20061;-58
2022/07/05 17:18:22;;;;;;;15.70;3.00;;;;;;;;;;21340336;27;20049;-56
2022/07/05 17:28:24;;;;;;;5.85;1.75;;;;;;;;;;21338407;27;20050;-60
2022/07/05 17:38:27;;;;;;;5.63;2.42;;;;;;;;;;21339055;27;20050;-59
2022/07/05 17:48:31;;;;;;;5.90;1.95;;;;;;;;;;21337335;27;20102;-60
2022/07/05 17:58:33;;;;;;;4.32;1.77;;;;;;;;;;21337630;27;20038;-58
2022/07/05 18:08:35;;;;;;;15.13;2.50;;;;;;;;;;21336405;27;20059;-60
2022/07/05 18:18:37;;;;;;;6.80;3.00;;;;;;;;;;21335877;27;20091;-59
2022/07/05 18:28:39;;;;;;;7.10;2.20;;;;;;;;;;21336043;27;20089;-55
2022/07/05 18:38:41;;;;;;;4.63;1.90;;;;;;;;;;21335024;27;20498;-63
2022/07/05 18:48:43;;;;;;;7.45;1.92;;;;;;;;;;21334973;27;20129;-56
2022/07/05 18:58:45;;;;;;;5.13;2.95;;;;;;;;;;21332608;27;20047;-57
2022/07/05 19:19:08;;;;;;;6.22;2.40;;;;;;;;;;21333968;27;20074;-61
2022/07/05 19:29:10;;;;;;;8.52;4.38;;;;;;;;;;21333651;27;20051;-56
2022/07/05 19:39:12;;;;;;;4.60;2.08;;;;;;;;;;21261333;27;20051;-56
2022/07/05 19:49:14;;;;;;;7.32;2.60;;;;;;;;;;21200289;28;20050;-58
2022/07/05 19:59:16;;;;;;;8.50;3.92;;;;;;;;;;21198791;28;20036;-57
2022/07/05 20:09:19;;;;;;;7.10;3.50;;;;;;;;;;21208231;27;20083;-58
2022/07/05 20:19:21;;;;;;;4.03;2.30;;;;;;;;;;21215286;27;20042;-61
2022/07/05 20:29:25;;;;;;;4.65;3.30;;;;;;;;;;21173569;28;20108;-63
2022/07/05 20:39:28;;;;;;;4.75;3.00;;;;;;;;;;21173423;28;20048;-63
2022/07/05 20:49:30;;;;;;;7.35;4.05;;;;;;;;;;21172714;28;20074;-61
2022/07/05 20:59:32;;;;;;;12.02;9.65;;;;;;;;;;21171454;28;20047;-62
2022/07/05 21:09:35;;;;;;;3.67;1.90;;;;;;;;;;21171067;28;20091;-64
2022/07/05 21:19:37;;;;;;;4.43;3.15;;;;;;;;;;21168303;28;20048;-63
2022/07/05 21:29:40;;;;;;;5.25;2.97;;;;;;;;;;21169647;28;20138;-62
2022/07/05 21:39:43;;;;;;;4.45;2.72;;;;;;;;;;21168145;28;20094;-63
2022/07/05 21:49:45;;;;;;;6.25;2.65;;;;;;;;;;21168757;28;20083;-62
2022/07/05 22:10:09;;;;;;;5.70;3.95;;;;;;;;;;21167064;28;20063;-62
2022/07/05 22:20:11;;;;;;;5.80;3.38;;;;;;;;;;21165099;28;20059;-62
2022/07/05 22:30:13;;;;;;;9.35;4.45;;;;;;;;;;21145978;28;20052;-63
2022/07/05 22:40:14;;;;;;;13.57;7.40;;;;;;;;;;21163960;28;20048;-61
2022/07/05 22:50:17;;;;;;;9.38;3.55;;;;;;;;;;21163045;28;20043;-63
2022/07/05 23:00:19;;;;;;;10.30;4.30;;;;;;;;;;21164162;28;20043;-61
2022/07/05 23:10:21;;;;;;;8.38;3.30;;;;;;;;;;21162405;28;20095;-61
2022/07/05 23:20:23;;;;;;;8.20;2.72;;;;;;;;;;21162569;28;20047;-62
2022/07/05 23:30:25;;;;;;;5.35;3.25;;;;;;;;;;21161657;28;20051;-61
2022/07/05 23:40:27;;;;;;;13.13;4.53;;;;;;;;;;21166104;28;20438;-61
2022/07/05 23:50:28;;;;;;;7.10;2.53;;;;;;;;;;21178185;28;20054;-62
